^^
Saratoga-Weather Station Historical Data
Daily Summary for September 23, 2020 Units:  Both    English   Metric
Daily Weekly Monthly Yearly Custom
  High: Low: Average:
Temperature: 74.8 °F /  23.8 °C 58.3 °F /  14.6 °C 66.4 °F /  19.1 °C
Dew Point: 59.2 °F /  15.1 °C 43.9 °F /  6.6 °C 53.6 °F /  12 °C
Humidity: 85% 43% 65%
Wind Speed: 10.1mph /  16.3km/h - 2.2mph /  3.5km/h
Wind Gust: 15mph /  24.1km/h - -
Wind- - SW
Pressure: 29.8 in /  1007.5 hPa 29.6 in /  1002.0 hPa -
Precipitation: 0.06 in /  1.5 mm    
Historical Graphs
 
 
Tabular Data for September 23, 2020
Time Temperature Dew Point Pressure Wind Wind Speed Wind Gust Humidity Rainfall Rate (Hourly) solar
00:04 68.2 °F /  20.1 °C 44.8 °F /  7.1 °C 29.7in /  1006.8hPa SW 0.9mph /  1.4km/h 3mph /  4.8km/h 43% 0in /  0.0mm 0 W/m2
00:09 68 °F /  20 °C 45.3 °F /  7.4 °C 29.7in /  1006.8hPa WNW 2mph /  3.2km/h 4mph /  6.4km/h 44% 0in /  0.0mm 0 W/m2
00:15 67.8 °F /  19.9 °C 45.1 °F /  7.3 °C 29.7in /  1006.8hPa Calm   2mph /  3.2km/h 44% 0in /  0.0mm 0 W/m2
00:20 67.8 °F /  19.9 °C 45.1 °F /  7.3 °C 29.7in /  1006.8hPa West 0.9mph /  1.4km/h 4mph /  6.4km/h 44% 0in /  0.0mm 0 W/m2
00:25 67.8 °F /  19.9 °C 45.1 °F /  7.3 °C 29.7in /  1006.8hPa Calm   3mph /  4.8km/h 44% 0in /  0.0mm 0 W/m2
00:30 67.6 °F /  19.8 °C 45 °F /  7.2 °C 29.7in /  1006.8hPa West 2mph /  3.2km/h 3mph /  4.8km/h 44% 0in /  0.0mm 0 W/m2
00:35 67.5 °F /  19.7 °C 44.8 °F /  7.1 °C 29.7in /  1006.8hPa Calm   6mph /  9.7km/h 44% 0in /  0.0mm 0 W/m2
00:40 67.3 °F /  19.6 °C 45.1 °F /  7.3 °C 29.7in /  1006.8hPa West 0.9mph /  1.4km/h 3mph /  4.8km/h 45% 0in /  0.0mm 0 W/m2
00:45 66.9 °F /  19.4 °C 45.5 °F /  7.5 °C 29.7in /  1006.8hPa West 2mph /  3.2km/h 3mph /  4.8km/h 46% 0in /  0.0mm 0 W/m2
00:50 66.9 °F /  19.4 °C 45.5 °F /  7.5 °C 29.7in /  1006.8hPa Calm   3mph /  4.8km/h 46% 0in /  0.0mm 0 W/m2
00:55 66.7 °F /  19.3 °C 44.8 °F /  7.1 °C 29.7in /  1006.8hPa West 4mph /  6.4km/h 4mph /  6.4km/h 45% 0in /  0.0mm 0 W/m2
01:00 66.7 °F /  19.3 °C 44.8 °F /  7.1 °C 29.7in /  1006.8hPa NNW 0.9mph /  1.4km/h 3mph /  4.8km/h 45% 0in /  0.0mm 0 W/m2
01:05 66.7 °F /  19.3 °C 44.8 °F /  7.1 °C 29.7in /  1006.8hPa WNW 2.9mph /  4.7km/h 3mph /  4.8km/h 45% 0in /  0.0mm 0 W/m2
01:10 66.7 °F /  19.3 °C 45.3 °F /  7.4 °C 29.7in /  1006.8hPa WNW 2.9mph /  4.7km/h 5mph /  8km/h 46% 0in /  0.0mm 0 W/m2
01:15 66.6 °F /  19.2 °C 45.1 °F /  7.3 °C 29.7in /  1006.8hPa West 4mph /  6.4km/h 7mph /  11.3km/h 46% 0in /  0.0mm 0 W/m2
01:20 66.6 °F /  19.2 °C 45.1 °F /  7.3 °C 29.7in /  1006.8hPa WSW 2.9mph /  4.7km/h 5mph /  8km/h 46% 0in /  0.0mm 0 W/m2
01:25 66.4 °F /  19.1 °C 45 °F /  7.2 °C 29.7in /  1006.8hPa West 2mph /  3.2km/h 6mph /  9.7km/h 46% 0in /  0.0mm 0 W/m2
01:30 66.2 °F /  19 °C 45.3 °F /  7.4 °C 29.7in /  1006.8hPa NW 0.9mph /  1.4km/h 5mph /  8km/h 47% 0in /  0.0mm 0 W/m2
01:35 66 °F /  18.9 °C 45.1 °F /  7.3 °C 29.7in /  1006.8hPa WNW 2.9mph /  4.7km/h 7mph /  11.3km/h 47% 0in /  0.0mm 0 W/m2
01:40 65.8 °F /  18.8 °C 45 °F /  7.2 °C 29.7in /  1006.8hPa NW 2.9mph /  4.7km/h 6mph /  9.7km/h 47% 0in /  0.0mm 0 W/m2
01:45 65.7 °F /  18.7 °C 45 °F /  7.2 °C 29.7in /  1006.8hPa NW 2mph /  3.2km/h 3mph /  4.8km/h 47% 0in /  0.0mm 0 W/m2
01:50 65.5 °F /  18.6 °C 45.3 °F /  7.4 °C 29.7in /  1006.8hPa Calm     48% 0in /  0.0mm 0 W/m2
01:55 65.1 °F /  18.4 °C 45.5 °F /  7.5 °C 29.7in /  1006.8hPa SW 2mph /  3.2km/h 2mph /  3.2km/h 49% 0in /  0.0mm 0 W/m2
02:00 64.8 °F /  18.2 °C 45.7 °F /  7.6 °C 29.7in /  1006.8hPa Calm   2mph /  3.2km/h 50% 0in /  0.0mm 0 W/m2
02:05 64.2 °F /  17.9 °C 44.6 °F /  7 °C 29.7in /  1006.8hPa West 2mph /  3.2km/h 3mph /  4.8km/h 49% 0in /  0.0mm 0 W/m2
02:10 64 °F /  17.8 °C 45.5 °F /  7.5 °C 29.7in /  1006.8hPa Calm   1mph /  1.6km/h 51% 0in /  0.0mm 0 W/m2
02:15 63.9 °F /  17.7 °C 45.3 °F /  7.4 °C 29.7in /  1006.8hPa Calm   3mph /  4.8km/h 51% 0in /  0.0mm 0 W/m2
02:20 63.5 °F /  17.5 °C 45.5 °F /  7.5 °C 29.7in /  1006.8hPa NNW 0.9mph /  1.4km/h 1mph /  1.6km/h 52% 0in /  0.0mm 0 W/m2
02:25 63 °F /  17.2 °C 45.5 °F /  7.5 °C 29.7in /  1006.8hPa Calm   2mph /  3.2km/h 53% 0in /  0.0mm 0 W/m2
02:30 62.8 °F /  17.1 °C 45.3 °F /  7.4 °C 29.7in /  1006.8hPa Calm   1mph /  1.6km/h 53% 0in /  0.0mm 0 W/m2
02:35 62.4 °F /  16.9 °C 45.5 °F /  7.5 °C 29.7in /  1006.8hPa NNW 0.9mph /  1.4km/h 2mph /  3.2km/h 54% 0in /  0.0mm 0 W/m2
02:40 62.1 °F /  16.7 °C 45.1 °F /  7.3 °C 29.7in /  1006.8hPa WSW 0.9mph /  1.4km/h 1mph /  1.6km/h 54% 0in /  0.0mm 0 W/m2
02:45 62.2 °F /  16.8 °C 44.4 °F /  6.9 °C 29.7in /  1006.8hPa WSW 0.9mph /  1.4km/h 4mph /  6.4km/h 52% 0in /  0.0mm 0 W/m2
02:50 62.6 °F /  17 °C 44.8 °F /  7.1 °C 29.7in /  1006.8hPa NW 2mph /  3.2km/h 3mph /  4.8km/h 52% 0in /  0.0mm 0 W/m2
02:55 63 °F /  17.2 °C 44.6 °F /  7 °C 29.7in /  1006.8hPa Calm   3mph /  4.8km/h 51% 0in /  0.0mm 0 W/m2
03:00 63 °F /  17.2 °C 44.1 °F /  6.7 °C 29.7in /  1006.8hPa ENE 2mph /  3.2km/h 4mph /  6.4km/h 50% 0in /  0.0mm 0 W/m2
03:05 63 °F /  17.2 °C 44.1 °F /  6.7 °C 29.7in /  1006.8hPa WSW 4.9mph /  7.9km/h 7mph /  11.3km/h 50% 0in /  0.0mm 0 W/m2
03:10 63.1 °F /  17.3 °C 44.2 °F /  6.8 °C 29.7in /  1006.8hPa WNW 2mph /  3.2km/h 8mph /  12.9km/h 50% 0in /  0.0mm 0 W/m2
03:15 63 °F /  17.2 °C 44.1 °F /  6.7 °C 29.7in /  1006.8hPa WNW 2mph /  3.2km/h 7mph /  11.3km/h 50% 0in /  0.0mm 0 W/m2
03:20 63 °F /  17.2 °C 44.1 °F /  6.7 °C 29.7in /  1006.8hPa WSW 2.9mph /  4.7km/h 7mph /  11.3km/h 50% 0in /  0.0mm 0 W/m2
03:25 63 °F /  17.2 °C 44.1 °F /  6.7 °C 29.7in /  1006.8hPa West 2.9mph /  4.7km/h 6mph /  9.7km/h 50% 0in /  0.0mm 0 W/m2
03:30 62.8 °F /  17.1 °C 43.9 °F /  6.6 °C 29.7in /  1006.8hPa West 2mph /  3.2km/h 7mph /  11.3km/h 50% 0in /  0.0mm 0 W/m2
03:35 62.8 °F /  17.1 °C 44.4 °F /  6.9 °C 29.7in /  1006.8hPa WSW 2.9mph /  4.7km/h 4mph /  6.4km/h 51% 0in /  0.0mm 0 W/m2
03:40 62.4 °F /  16.9 °C 44.1 °F /  6.7 °C 29.7in /  1006.8hPa WNW 2.9mph /  4.7km/h 4mph /  6.4km/h 51% 0in /  0.0mm 0 W/m2
03:45 62.2 °F /  16.8 °C 43.9 °F /  6.6 °C 29.7in /  1006.8hPa WNW 0.9mph /  1.4km/h 6mph /  9.7km/h 51% 0in /  0.0mm 0 W/m2
03:50 62.1 °F /  16.7 °C 44.2 °F /  6.8 °C 29.7in /  1006.8hPa SSW 2mph /  3.2km/h 6mph /  9.7km/h 52% 0in /  0.0mm 0 W/m2
03:55 61.9 °F /  16.6 °C 44.1 °F /  6.7 °C 29.7in /  1006.8hPa West 2mph /  3.2km/h 6mph /  9.7km/h 52% 0in /  0.0mm 0 W/m2
04:00 61.7 °F /  16.5 °C 44.4 °F /  6.9 °C 29.7in /  1006.8hPa West 6.9mph /  11.1km/h 8mph /  12.9km/h 53% 0in /  0.0mm 0 W/m2
04:05 61.5 °F /  16.4 °C 44.2 °F /  6.8 °C 29.7in /  1006.8hPa SE 2.9mph /  4.7km/h 4mph /  6.4km/h 53% 0in /  0.0mm 0 W/m2
04:10 61.5 °F /  16.4 °C 44.2 °F /  6.8 °C 29.7in /  1006.4hPa WNW 4mph /  6.4km/h 7mph /  11.3km/h 53% 0in /  0.0mm 0 W/m2
04:15 61.3 °F /  16.3 °C 44.1 °F /  6.7 °C 29.7in /  1006.4hPa WSW 4mph /  6.4km/h 11mph /  17.7km/h 53% 0in /  0.0mm 0 W/m2
04:20 61.2 °F /  16.2 °C 44.4 °F /  6.9 °C 29.7in /  1006.4hPa WNW 0.9mph /  1.4km/h 3mph /  4.8km/h 54% 0in /  0.0mm 0 W/m2
04:25 61 °F /  16.1 °C 44.8 °F /  7.1 °C 29.7in /  1006.4hPa WNW 2mph /  3.2km/h 4mph /  6.4km/h 55% 0in /  0.0mm 0 W/m2
04:30 60.8 °F /  16 °C 44.6 °F /  7 °C 29.7in /  1006.4hPa WNW 0.9mph /  1.4km/h 4mph /  6.4km/h 55% 0in /  0.0mm 0 W/m2
04:35 60.6 °F /  15.9 °C 45.3 °F /  7.4 °C 29.7in /  1006.4hPa West 0.9mph /  1.4km/h 6mph /  9.7km/h 57% 0in /  0.0mm 0 W/m2
04:40 60.4 °F /  15.8 °C 45.7 °F /  7.6 °C 29.7in /  1006.4hPa West 2mph /  3.2km/h 7mph /  11.3km/h 58% 0in /  0.0mm 0 W/m2
04:45 60.3 °F /  15.7 °C 45.9 °F /  7.7 °C 29.7in /  1006.4hPa WSW 4.9mph /  7.9km/h 6mph /  9.7km/h 59% 0in /  0.0mm 0 W/m2
04:50 60.3 °F /  15.7 °C 46.8 °F /  8.2 °C 29.7in /  1006.4hPa NW 2.9mph /  4.7km/h 10mph /  16.1km/h 61% 0in /  0.0mm 0 W/m2
04:55 60.1 °F /  15.6 °C 46.9 °F /  8.3 °C 29.7in /  1006.4hPa NW 2.9mph /  4.7km/h 7mph /  11.3km/h 62% 0in /  0.0mm 0 W/m2
05:00 60.1 °F /  15.6 °C 47.8 °F /  8.8 °C 29.7in /  1006.4hPa West 0.9mph /  1.4km/h 9mph /  14.5km/h 64% 0in /  0.0mm 0 W/m2
05:05 59.9 °F /  15.5 °C 48.6 °F /  9.2 °C 29.7in /  1006.4hPa WNW 2.9mph /  4.7km/h 5mph /  8km/h 66% 0in /  0.0mm 0 W/m2
05:10 59.9 °F /  15.5 °C 48.9 °F /  9.4 °C 29.7in /  1006.4hPa West 4mph /  6.4km/h 7mph /  11.3km/h 67% 0in /  0.0mm 0 W/m2
05:15 59.7 °F /  15.4 °C 49.1 °F /  9.5 °C 29.7in /  1006.4hPa WSW 2.9mph /  4.7km/h 6mph /  9.7km/h 68% 0in /  0.0mm 0 W/m2
05:20 59.5 °F /  15.3 °C 49.3 °F /  9.6 °C 29.7in /  1006.4hPa WNW 0.9mph /  1.4km/h 5mph /  8km/h 69% 0in /  0.0mm 0 W/m2
05:25 59.5 °F /  15.3 °C 49.3 °F /  9.6 °C 29.7in /  1006.4hPa SW 4mph /  6.4km/h 4mph /  6.4km/h 69% 0in /  0.0mm 0 W/m2
05:30 59.4 °F /  15.2 °C 50 °F /  10 °C 29.7in /  1006.4hPa WNW 2mph /  3.2km/h 7mph /  11.3km/h 71% 0in /  0.0mm 0 W/m2
05:35 59.4 °F /  15.2 °C 50.4 °F /  10.2 °C 29.7in /  1006.4hPa North 2.9mph /  4.7km/h 3mph /  4.8km/h 72% 0in /  0.0mm 0 W/m2
05:40 59.4 °F /  15.2 °C 50.7 °F /  10.4 °C 29.7in /  1006.4hPa SW 2mph /  3.2km/h 6mph /  9.7km/h 73% 0in /  0.0mm 0 W/m2
05:45 59.4 °F /  15.2 °C 51.1 °F /  10.6 °C 29.7in /  1006.4hPa West 2mph /  3.2km/h 4mph /  6.4km/h 74% 0in /  0.0mm 0 W/m2
05:50 59.4 °F /  15.2 °C 51.8 °F /  11 °C 29.7in /  1006.4hPa SW 2.9mph /  4.7km/h 4mph /  6.4km/h 76% 0in /  0.0mm 0 W/m2
05:55 59.4 °F /  15.2 °C 51.8 °F /  11 °C 29.7in /  1006.4hPa WNW 4mph /  6.4km/h 4mph /  6.4km/h 76% 0in /  0.0mm 0 W/m2
06:00 59.4 °F /  15.2 °C 52.2 °F /  11.2 °C 29.7in /  1006.4hPa SSW 2mph /  3.2km/h 6mph /  9.7km/h 77% 0in /  0.0mm 0 W/m2
06:05 59.5 °F /  15.3 °C 52.3 °F /  11.3 °C 29.7in /  1006.4hPa NNW 2mph /  3.2km/h 3mph /  4.8km/h 77% 0in /  0.0mm 0 W/m2
06:10 59.5 °F /  15.3 °C 52 °F /  11.1 °C 29.7in /  1006.4hPa North 0.9mph /  1.4km/h 3mph /  4.8km/h 76% 0in /  0.0mm 0 W/m2
06:15 59.4 °F /  15.2 °C 51.1 °F /  10.6 °C 29.7in /  1006.8hPa Calm   1mph /  1.6km/h 74% 0in /  0.0mm 0 W/m2
06:20 59.2 °F /  15.1 °C 50.9 °F /  10.5 °C 29.7in /  1006.4hPa Calm   1mph /  1.6km/h 74% 0in /  0.0mm 0 W/m2
06:25 58.8 °F /  14.9 °C 50.9 °F /  10.5 °C 29.7in /  1006.4hPa NE 2.9mph /  4.7km/h 3mph /  4.8km/h 75% 0in /  0.0mm 0 W/m2
06:30 58.6 °F /  14.8 °C 51.4 °F /  10.8 °C 29.7in /  1006.4hPa Calm   3mph /  4.8km/h 77% 0in /  0.0mm 0 W/m2
06:35 58.5 °F /  14.7 °C 51.6 °F /  10.9 °C 29.7in /  1006.4hPa Calm   1mph /  1.6km/h 78% 0in /  0.0mm 0 W/m2
06:40 58.5 °F /  14.7 °C 52 °F /  11.1 °C 29.7in /  1006.4hPa East 0.9mph /  1.4km/h 3mph /  4.8km/h 79% 0in /  0.0mm 0 W/m2
06:45 58.5 °F /  14.7 °C 52.3 °F /  11.3 °C 29.7in /  1006.4hPa Calm   1mph /  1.6km/h 80% 0in /  0.0mm 0 W/m2
06:50 58.5 °F /  14.7 °C 52.3 °F /  11.3 °C 29.7in /  1006.4hPa East 0.9mph /  1.4km/h 3mph /  4.8km/h 80% 0in /  0.0mm 0 W/m2
06:55 58.5 °F /  14.7 °C 52.7 °F /  11.5 °C 29.7in /  1006.8hPa Calm   1mph /  1.6km/h 81% 0in /  0.0mm 0 W/m2
07:00 58.3 °F /  14.6 °C 52.5 °F /  11.4 °C 29.7in /  1006.8hPa Calm     81% 0in /  0.0mm 0 W/m2
07:05 58.5 °F /  14.7 °C 53.1 °F /  11.7 °C 29.7in /  1006.8hPa ENE 0.9mph /  1.4km/h 4mph /  6.4km/h 82% 0in /  0.0mm 0 W/m2
07:10 58.5 °F /  14.7 °C 53.1 °F /  11.7 °C 29.7in /  1006.8hPa ENE 2mph /  3.2km/h 2mph /  3.2km/h 82% 0in /  0.0mm 0 W/m2
07:15 58.6 °F /  14.8 °C 53.4 °F /  11.9 °C 29.7in /  1006.8hPa NE 0.9mph /  1.4km/h 4mph /  6.4km/h 83% 0in /  0.0mm 0 W/m2
07:20 58.6 °F /  14.8 °C 53.4 °F /  11.9 °C 29.7in /  1006.8hPa ENE 2.9mph /  4.7km/h 3mph /  4.8km/h 83% 0in /  0.0mm 0 W/m2
07:25 58.6 °F /  14.8 °C 53.4 °F /  11.9 °C 29.7in /  1006.8hPa SE 0.9mph /  1.4km/h 3mph /  4.8km/h 83% 0in /  0.0mm 0 W/m2
07:30 58.8 °F /  14.9 °C 54 °F /  12.2 °C 29.7in /  1006.8hPa NNW 0.9mph /  1.4km/h 3mph /  4.8km/h 84% 0in /  0.0mm 5 W/m2
07:35 59.2 °F /  15.1 °C 54.7 °F /  12.6 °C 29.7in /  1006.8hPa WNW 2.9mph /  4.7km/h 4mph /  6.4km/h 85% 0in /  0.0mm 7 W/m2
07:40 59.4 °F /  15.2 °C 54.9 °F /  12.7 °C 29.7in /  1006.8hPa West 0.9mph /  1.4km/h 7mph /  11.3km/h 85% 0in /  0.0mm 11 W/m2
07:45 59.5 °F /  15.3 °C 55 °F /  12.8 °C 29.7in /  1006.8hPa West 0.9mph /  1.4km/h 7mph /  11.3km/h 85% 0in /  0.0mm 14 W/m2
07:50 59.7 °F /  15.4 °C 55.2 °F /  12.9 °C 29.7in /  1006.8hPa NW 4.9mph /  7.9km/h 7mph /  11.3km/h 85% 0in /  0.0mm 18 W/m2
07:55 59.9 °F /  15.5 °C 55.4 °F /  13 °C 29.7in /  1006.8hPa NNW 2mph /  3.2km/h 5mph /  8km/h 85% 0in /  0.0mm 19 W/m2
08:00 60.1 °F /  15.6 °C 55.6 °F /  13.1 °C 29.7in /  1006.8hPa NW 2.9mph /  4.7km/h 7mph /  11.3km/h 85% 0in /  0.0mm 21 W/m2
08:05 60.1 °F /  15.6 °C 55.6 °F /  13.1 °C 29.7in /  1006.8hPa NW 2mph /  3.2km/h 2mph /  3.2km/h 85% 0in /  0.0mm 26 W/m2
08:10 60.1 °F /  15.6 °C 55.6 °F /  13.1 °C 29.7in /  1007.1hPa Calm   3mph /  4.8km/h 85% 0in /  0.0mm 30 W/m2
08:15 60.1 °F /  15.6 °C 55.6 °F /  13.1 °C 29.7in /  1007.1hPa Calm   4mph /  6.4km/h 85% 0in /  0.0mm 37 W/m2
08:20 60.1 °F /  15.6 °C 55.6 °F /  13.1 °C 29.7in /  1007.1hPa East 2mph /  3.2km/h 3mph /  4.8km/h 85% 0in /  0.0mm 37 W/m2
08:26 60.1 °F /  15.6 °C 55.6 °F /  13.1 °C 29.7in /  1007.1hPa ENE 0.9mph /  1.4km/h 3mph /  4.8km/h 85% 0in /  0.0mm 46 W/m2
08:31 60.1 °F /  15.6 °C 55.6 °F /  13.1 °C 29.7in /  1006.8hPa NW 2mph /  3.2km/h 3mph /  4.8km/h 85% 0in /  0.0mm 67 W/m2
08:36 60.3 °F /  15.7 °C 55.8 °F /  13.2 °C 29.7in /  1007.1hPa West 0.9mph /  1.4km/h 2mph /  3.2km/h 85% 0in /  0.0mm 81 W/m2
08:41 60.4 °F /  15.8 °C 55.9 °F /  13.3 °C 29.7in /  1007.1hPa Calm   1mph /  1.6km/h 85% 0in /  0.0mm 77 W/m2
08:46 60.6 °F /  15.9 °C 56.1 °F /  13.4 °C 29.7in /  1007.1hPa NE 2.9mph /  4.7km/h 4mph /  6.4km/h 85% 0in /  0.0mm 67 W/m2
08:51 61 °F /  16.1 °C 56.1 °F /  13.4 °C 29.7in /  1007.1hPa West 0.9mph /  1.4km/h 3mph /  4.8km/h 84% 0in /  0.0mm 67 W/m2
08:56 61 °F /  16.1 °C 56.1 °F /  13.4 °C 29.7in /  1007.1hPa ESE 0.9mph /  1.4km/h 4mph /  6.4km/h 84% 0in /  0.0mm 81 W/m2
09:01 61.2 °F /  16.2 °C 56.3 °F /  13.5 °C 29.7in /  1007.1hPa Calm   4mph /  6.4km/h 84% 0in /  0.0mm 79 W/m2
09:06 61.3 °F /  16.3 °C 56.5 °F /  13.6 °C 29.8in /  1007.5hPa Calm     84% 0in /  0.0mm 77 W/m2
09:11 61.5 °F /  16.4 °C 56.3 °F /  13.5 °C 29.7in /  1007.1hPa Calm   2mph /  3.2km/h 83% 0in /  0.0mm 84 W/m2
09:16 61.5 °F /  16.4 °C 56.3 °F /  13.5 °C 29.7in /  1007.1hPa Calm   1mph /  1.6km/h 83% 0in /  0.0mm 98 W/m2
09:21 61.9 °F /  16.6 °C 56.7 °F /  13.7 °C 29.7in /  1007.1hPa NW 2mph /  3.2km/h 5mph /  8km/h 83% 0in /  0.0mm 211 W/m2
09:26 62.1 °F /  16.7 °C 56.5 °F /  13.6 °C 29.8in /  1007.5hPa NW 2mph /  3.2km/h 5mph /  8km/h 82% 0in /  0.0mm 72 W/m2
09:31 62.1 °F /  16.7 °C 56.5 °F /  13.6 °C 29.8in /  1007.5hPa WNW 2.9mph /  4.7km/h 4mph /  6.4km/h 82% 0in /  0.0mm 79 W/m2
09:36 61.9 °F /  16.6 °C 56.3 °F /  13.5 °C 29.8in /  1007.5hPa West 2.9mph /  4.7km/h 7mph /  11.3km/h 82% 0in /  0.0mm 90 W/m2
09:41 62.1 °F /  16.7 °C 56.5 °F /  13.6 °C 29.8in /  1007.5hPa Calm   3mph /  4.8km/h 82% 0in /  0.0mm 197 W/m2
09:46 62.4 °F /  16.9 °C 56.8 °F /  13.8 °C 29.7in /  1007.1hPa NW 0.9mph /  1.4km/h 5mph /  8km/h 82% 0in /  0.0mm 265 W/m2
09:51 62.6 °F /  17 °C 56.7 °F /  13.7 °C 29.8in /  1007.5hPa NW 0.9mph /  1.4km/h 4mph /  6.4km/h 81% 0in /  0.0mm 279 W/m2
09:56 63 °F /  17.2 °C 57 °F /  13.9 °C 29.8in /  1007.5hPa Calm   3mph /  4.8km/h 81% 0in /  0.0mm 290 W/m2
10:01 63.3 °F /  17.4 °C 57 °F /  13.9 °C 29.7in /  1007.1hPa West 2.9mph /  4.7km/h 9mph /  14.5km/h 80% 0in /  0.0mm 97 W/m2
10:06 63.3 °F /  17.4 °C 56.7 °F /  13.7 °C 29.7in /  1007.1hPa WNW 2.9mph /  4.7km/h 5mph /  8km/h 79% 0in /  0.0mm 107 W/m2
10:11 63.3 °F /  17.4 °C 56.7 °F /  13.7 °C 29.7in /  1007.1hPa West 0.9mph /  1.4km/h 9mph /  14.5km/h 79% 0in /  0.0mm 132 W/m2
10:16 63.3 °F /  17.4 °C 56.7 °F /  13.7 °C 29.8in /  1007.5hPa Calm   3mph /  4.8km/h 79% 0in /  0.0mm 102 W/m2
10:21 63.3 °F /  17.4 °C 56.7 °F /  13.7 °C 29.7in /  1007.1hPa West 0.9mph /  1.4km/h 5mph /  8km/h 79% 0in /  0.0mm 102 W/m2
10:26 63.5 °F /  17.5 °C 56.8 °F /  13.8 °C 29.8in /  1007.5hPa Calm   1mph /  1.6km/h 79% 0in /  0.0mm 183 W/m2
10:31 63.9 °F /  17.7 °C 57.2 °F /  14 °C 29.7in /  1007.1hPa North 0.9mph /  1.4km/h 5mph /  8km/h 79% 0in /  0.0mm 415 W/m2
10:36 64.6 °F /  18.1 °C 57.6 °F /  14.2 °C 29.7in /  1007.1hPa WNW 4mph /  6.4km/h 7mph /  11.3km/h 78% 0in /  0.0mm 399 W/m2
10:41 65.3 °F /  18.5 °C 57.2 °F /  14 °C 29.7in /  1007.1hPa West 8.1mph /  13km/h 8mph /  12.9km/h 75% 0in /  0.0mm 397 W/m2
10:46 65.7 °F /  18.7 °C 57.2 °F /  14 °C 29.8in /  1007.5hPa WNW 2.9mph /  4.7km/h 8mph /  12.9km/h 74% 0in /  0.0mm 394 W/m2
10:51 65.8 °F /  18.8 °C 57 °F /  13.9 °C 29.7in /  1007.1hPa West 2.9mph /  4.7km/h 3mph /  4.8km/h 73% 0in /  0.0mm 401 W/m2
10:56 66 °F /  18.9 °C 57.6 °F /  14.2 °C 29.7in /  1007.1hPa Calm   4mph /  6.4km/h 74% 0in /  0.0mm 148 W/m2
11:01 66.4 °F /  19.1 °C 57.4 °F /  14.1 °C 29.7in /  1007.1hPa North 0.9mph /  1.4km/h 4mph /  6.4km/h 73% 0in /  0.0mm 213 W/m2
11:06 66.6 °F /  19.2 °C 57.2 °F /  14 °C 29.7in /  1007.1hPa SW 4.9mph /  7.9km/h 6mph /  9.7km/h 72% 0in /  0.0mm 471 W/m2
11:11 66.7 °F /  19.3 °C 57 °F /  13.9 °C 29.7in /  1007.1hPa SSE 2.9mph /  4.7km/h 9mph /  14.5km/h 71% 0in /  0.0mm 469 W/m2
11:16 66.7 °F /  19.3 °C 57 °F /  13.9 °C 29.7in /  1007.1hPa West 6.9mph /  11.1km/h 7mph /  11.3km/h 71% 0in /  0.0mm 309 W/m2
11:21 66.7 °F /  19.3 °C 57.4 °F /  14.1 °C 29.7in /  1007.1hPa West 2.9mph /  4.7km/h 9mph /  14.5km/h 72% 0in /  0.0mm 531 W/m2
11:26 67.3 °F /  19.6 °C 57.6 °F /  14.2 °C 29.7in /  1007.1hPa WNW 2mph /  3.2km/h 3mph /  4.8km/h 71% 0in /  0.0mm 510 W/m2
11:31 67.6 °F /  19.8 °C 57.6 °F /  14.2 °C 29.7in /  1007.1hPa West 2.9mph /  4.7km/h 6mph /  9.7km/h 70% 0in /  0.0mm 538 W/m2
11:36 67.8 °F /  19.9 °C 57.7 °F /  14.3 °C 29.7in /  1007.1hPa WNW 4mph /  6.4km/h 8mph /  12.9km/h 70% 0in /  0.0mm 301 W/m2
11:41 68.2 °F /  20.1 °C 58.1 °F /  14.5 °C 29.7in /  1007.1hPa West 10.1mph /  16.3km/h 10mph /  16.1km/h 70% 0in /  0.0mm 374 W/m2
11:46 68 °F /  20 °C 58.3 °F /  14.6 °C 29.7in /  1007.1hPa WNW 4.9mph /  7.9km/h 6mph /  9.7km/h 71% 0in /  0.0mm 350 W/m2
11:51 68.2 °F /  20.1 °C 58.5 °F /  14.7 °C 29.7in /  1007.1hPa West 10mph /  16.1km/h 10mph /  16.1km/h 71% 0in /  0.0mm 550 W/m2
11:56 68.5 °F /  20.3 °C 58.3 °F /  14.6 °C 29.7in /  1006.8hPa West 6mph /  9.7km/h 9mph /  14.5km/h 70% 0in /  0.0mm 606 W/m2
12:01 68.5 °F /  20.3 °C 58.3 °F /  14.6 °C 29.7in /  1006.8hPa West 6mph /  9.7km/h 8mph /  12.9km/h 70% 0in /  0.0mm 622 W/m2
12:06 68.7 °F /  20.4 °C 58.1 °F /  14.5 °C 29.7in /  1006.8hPa WNW 10.1mph /  16.3km/h 10mph /  16.1km/h 69% 0in /  0.0mm 343 W/m2
12:11 68.9 °F /  20.5 °C 57.9 °F /  14.4 °C 29.7in /  1006.8hPa WNW 2.9mph /  4.7km/h 6mph /  9.7km/h 68% 0in /  0.0mm 285 W/m2
12:16 68.9 °F /  20.5 °C 57.9 °F /  14.4 °C 29.7in /  1006.8hPa SW 2mph /  3.2km/h 15mph /  24.1km/h 68% 0in /  0.0mm 311 W/m2
12:21 68.9 °F /  20.5 °C 57.9 °F /  14.4 °C 29.7in /  1006.8hPa NW 4mph /  6.4km/h 7mph /  11.3km/h 68% 0in /  0.0mm 248 W/m2
12:26 68.7 °F /  20.4 °C 57.7 °F /  14.3 °C 29.7in /  1006.8hPa NW 2mph /  3.2km/h 15mph /  24.1km/h 68% 0in /  0.0mm 162 W/m2
12:31 68.9 °F /  20.5 °C 57.9 °F /  14.4 °C 29.7in /  1006.8hPa NW 2mph /  3.2km/h 4mph /  6.4km/h 68% 0in /  0.0mm 211 W/m2
12:36 68.9 °F /  20.5 °C 58.3 °F /  14.6 °C 29.7in /  1006.8hPa NNW 0.9mph /  1.4km/h 2mph /  3.2km/h 69% 0in /  0.0mm 204 W/m2
12:41 69.3 °F /  20.7 °C 58.3 °F /  14.6 °C 29.7in /  1006.8hPa West 6mph /  9.7km/h 8mph /  12.9km/h 68% 0in /  0.0mm 163 W/m2
12:46 69.1 °F /  20.6 °C 58.5 °F /  14.7 °C 29.7in /  1006.8hPa West 0.9mph /  1.4km/h 7mph /  11.3km/h 69% 0in /  0.0mm 195 W/m2
12:51 69.1 °F /  20.6 °C 58.5 °F /  14.7 °C 29.7in /  1006.8hPa North 2.9mph /  4.7km/h 8mph /  12.9km/h 69% 0in /  0.0mm 213 W/m2
12:56 69.3 °F /  20.7 °C 58.6 °F /  14.8 °C 29.7in /  1006.8hPa NNW 2mph /  3.2km/h 4mph /  6.4km/h 69% 0in /  0.0mm 292 W/m2
13:01 69.8 °F /  21 °C 58.8 °F /  14.9 °C 29.7in /  1006.4hPa NE 2mph /  3.2km/h 8mph /  12.9km/h 68% 0in /  0.0mm 766 W/m2
13:06 70.5 °F /  21.4 °C 59 °F /  15 °C 29.7in /  1006.4hPa Calm   5mph /  8km/h 67% 0in /  0.0mm 795 W/m2
13:11 71.1 °F /  21.7 °C 59.2 °F /  15.1 °C 29.7in /  1006.4hPa NNW 0.9mph /  1.4km/h 5mph /  8km/h 66% 0in /  0.0mm 761 W/m2
13:16 71.2 °F /  21.8 °C 58.5 °F /  14.7 °C 29.7in /  1006.4hPa SSE 0.9mph /  1.4km/h 3mph /  4.8km/h 64% 0in /  0.0mm 687 W/m2
13:21 71.8 °F /  22.1 °C 58.5 °F /  14.7 °C 29.7in /  1006.1hPa NW 0.9mph /  1.4km/h 2mph /  3.2km/h 63% 0in /  0.0mm 684 W/m2
13:26 72.7 °F /  22.6 °C 58.8 °F /  14.9 °C 29.7in /  1006.1hPa North 4mph /  6.4km/h 8mph /  12.9km/h 62% 0in /  0.0mm 272 W/m2
13:31 72.3 °F /  22.4 °C 57.7 °F /  14.3 °C 29.7in /  1006.1hPa West 8.1mph /  13km/h 10mph /  16.1km/h 60% 0in /  0.0mm 272 W/m2
13:36 72 °F /  22.2 °C 57.4 °F /  14.1 °C 29.7in /  1006.1hPa WSW 2mph /  3.2km/h 4mph /  6.4km/h 60% 0in /  0.0mm 285 W/m2
13:41 71.8 °F /  22.1 °C 57.6 °F /  14.2 °C 29.7in /  1006.1hPa ESE 2mph /  3.2km/h 10mph /  16.1km/h 61% 0in /  0.0mm 721 W/m2
13:46 72.3 °F /  22.4 °C 58.1 °F /  14.5 °C 29.7in /  1005.8hPa ENE 2.9mph /  4.7km/h 7mph /  11.3km/h 61% 0in /  0.0mm 659 W/m2
13:51 72.5 °F /  22.5 °C 57.7 °F /  14.3 °C 29.7in /  1005.8hPa WNW 6.9mph /  11.1km/h 9mph /  14.5km/h 60% 0in /  0.0mm 142 W/m2
13:56 71.8 °F /  22.1 °C 57.6 °F /  14.2 °C 29.7in /  1005.8hPa WNW 0.9mph /  1.4km/h 4mph /  6.4km/h 61% 0in /  0.0mm 174 W/m2
14:01 71.6 °F /  22 °C 57.9 °F /  14.4 °C 29.7in /  1005.8hPa NE 4mph /  6.4km/h 9mph /  14.5km/h 62% 0in /  0.0mm 171 W/m2
14:06 72 °F /  22.2 °C 58.3 °F /  14.6 °C 29.7in /  1005.8hPa NE 2.9mph /  4.7km/h 3mph /  4.8km/h 62% 0in /  0.0mm 731 W/m2
14:11 72.7 °F /  22.6 °C 58.5 °F /  14.7 °C 29.7in /  1005.8hPa NW 2.9mph /  4.7km/h 8mph /  12.9km/h 61% 0in /  0.0mm 700 W/m2
14:16 73 °F /  22.8 °C 57.9 °F /  14.4 °C 29.7in /  1005.8hPa NW 2.9mph /  4.7km/h 4mph /  6.4km/h 59% 0in /  0.0mm 111 W/m2
14:21 73 °F /  22.8 °C 57.9 °F /  14.4 °C 29.7in /  1005.8hPa NW 4mph /  6.4km/h 5mph /  8km/h 59% 0in /  0.0mm 113 W/m2
14:26 72.7 °F /  22.6 °C 57.6 °F /  14.2 °C 29.7in /  1005.8hPa SW 0.9mph /  1.4km/h 3mph /  4.8km/h 59% 0in /  0.0mm 169 W/m2
14:31 72.5 °F /  22.5 °C 57.4 °F /  14.1 °C 29.7in /  1005.8hPa East 0.9mph /  1.4km/h 4mph /  6.4km/h 59% 0in /  0.0mm 142 W/m2
14:36 72.1 °F /  22.3 °C 57 °F /  13.9 °C 29.7in /  1005.4hPa Calm   2mph /  3.2km/h 59% 0in /  0.0mm 146 W/m2
14:41 72.3 °F /  22.4 °C 57.2 °F /  14 °C 29.7in /  1005.4hPa NW 2mph /  3.2km/h 8mph /  12.9km/h 59% 0in /  0.0mm 153 W/m2
14:47 72.3 °F /  22.4 °C 57.2 °F /  14 °C 29.7in /  1005.4hPa West 4mph /  6.4km/h 8mph /  12.9km/h 59% 0in /  0.0mm 193 W/m2
14:52 72.9 °F /  22.7 °C 56.3 °F /  13.5 °C 29.7in /  1005.1hPa SSE 4mph /  6.4km/h 6mph /  9.7km/h 56% 0in /  0.0mm 687 W/m2
14:57 73.9 °F /  23.3 °C 56.3 °F /  13.5 °C 29.7in /  1005.4hPa South 0.9mph /  1.4km/h 10mph /  16.1km/h 54% 0in /  0.0mm 719 W/m2
15:02 74.1 °F /  23.4 °C 56.5 °F /  13.6 °C 29.7in /  1005.4hPa WNW 8.1mph /  13km/h 8mph /  12.9km/h 54% 0in /  0.0mm 295 W/m2
15:07 73.8 °F /  23.2 °C 56.1 °F /  13.4 °C 29.7in /  1005.4hPa West 2.9mph /  4.7km/h 12mph /  19.3km/h 54% 0in /  0.0mm 174 W/m2
15:12 73.9 °F /  23.3 °C 56.8 °F /  13.8 °C 29.7in /  1005.4hPa West 6.9mph /  11.1km/h 14mph /  22.5km/h 55% 0in /  0.0mm 700 W/m2
15:17 73.9 °F /  23.3 °C 56.8 °F /  13.8 °C 29.7in /  1005.1hPa West 4mph /  6.4km/h 6mph /  9.7km/h 55% 0in /  0.0mm 192 W/m2
15:22 74.1 °F /  23.4 °C 56.5 °F /  13.6 °C 29.7in /  1005.1hPa NW 2mph /  3.2km/h 14mph /  22.5km/h 54% 0in /  0.0mm 209 W/m2
15:27 74.1 °F /  23.4 °C 55.9 °F /  13.3 °C 29.7in /  1005.1hPa NW 2mph /  3.2km/h 6mph /  9.7km/h 53% 0in /  0.0mm 123 W/m2
15:32 73.8 °F /  23.2 °C 56.1 °F /  13.4 °C 29.7in /  1005.1hPa NW 2mph /  3.2km/h 7mph /  11.3km/h 54% 0in /  0.0mm 169 W/m2
15:37 73.8 °F /  23.2 °C 56.7 °F /  13.7 °C 29.7in /  1005.1hPa NW 4.9mph /  7.9km/h 5mph /  8km/h 55% 0in /  0.0mm 258 W/m2
15:42 73.8 °F /  23.2 °C 56.7 °F /  13.7 °C 29.7in /  1005.1hPa WNW 6.9mph /  11.1km/h 10mph /  16.1km/h 55% 0in /  0.0mm 107 W/m2
15:47 73.2 °F /  22.9 °C 56.1 °F /  13.4 °C 29.7in /  1005.1hPa West 2mph /  3.2km/h 8mph /  12.9km/h 55% 0in /  0.0mm 109 W/m2
15:52 73 °F /  22.8 °C 56.5 °F /  13.6 °C 29.7in /  1005.1hPa NW 4.9mph /  7.9km/h 10mph /  16.1km/h 56% 0in /  0.0mm 183 W/m2
15:57 72.9 °F /  22.7 °C 56.3 °F /  13.5 °C 29.7in /  1004.7hPa West 2.9mph /  4.7km/h 6mph /  9.7km/h 56% 0in /  0.0mm 612 W/m2
16:02 73.6 °F /  23.1 °C 56.8 °F /  13.8 °C 29.7in /  1004.7hPa NW 2mph /  3.2km/h 8mph /  12.9km/h 56% 0in /  0.0mm 615 W/m2
16:07 73.9 °F /  23.3 °C 56.8 °F /  13.8 °C 29.7in /  1004.7hPa WNW 2.9mph /  4.7km/h 8mph /  12.9km/h 55% 0in /  0.0mm 550 W/m2
16:12 74.5 °F /  23.6 °C 56.7 °F /  13.7 °C 29.7in /  1004.7hPa West 0.9mph /  1.4km/h 6mph /  9.7km/h 54% 0in /  0.0mm 529 W/m2
16:17 74.7 °F /  23.7 °C 56.5 °F /  13.6 °C 29.7in /  1004.7hPa NNW 6mph /  9.7km/h 10mph /  16.1km/h 53% 0in /  0.0mm 478 W/m2
16:22 74.5 °F /  23.6 °C 56.7 °F /  13.7 °C 29.7in /  1004.7hPa WSW 4.9mph /  7.9km/h 7mph /  11.3km/h 54% 0in /  0.0mm 468 W/m2
16:27 74.7 °F /  23.7 °C 56.5 °F /  13.6 °C 29.7in /  1004.4hPa NW 4.9mph /  7.9km/h 7mph /  11.3km/h 53% 0in /  0.0mm 441 W/m2
16:32 74.7 °F /  23.7 °C 56.5 °F /  13.6 °C 29.7in /  1004.4hPa NNW 2.9mph /  4.7km/h 6mph /  9.7km/h 53% 0in /  0.0mm 392 W/m2
16:37 74.7 °F /  23.7 °C 56.5 °F /  13.6 °C 29.7in /  1004.4hPa WNW 4mph /  6.4km/h 6mph /  9.7km/h 53% 0in /  0.0mm 385 W/m2
16:42 74.8 °F /  23.8 °C 56.5 °F /  13.6 °C 29.7in /  1004.4hPa South 2mph /  3.2km/h 4mph /  6.4km/h 53% 0in /  0.0mm 427 W/m2
16:47 74.8 °F /  23.8 °C 56.5 °F /  13.6 °C 29.7in /  1004.4hPa NE 2.9mph /  4.7km/h 5mph /  8km/h 53% 0in /  0.0mm 350 W/m2
16:52 74.7 °F /  23.7 °C 56.5 °F /  13.6 °C 29.7in /  1004.4hPa SE 2mph /  3.2km/h 7mph /  11.3km/h 53% 0in /  0.0mm 148 W/m2
16:57 74.1 °F /  23.4 °C 55.9 °F /  13.3 °C 29.7in /  1004.4hPa NE 4mph /  6.4km/h 4mph /  6.4km/h 53% 0in /  0.0mm 98 W/m2
17:02 73.8 °F /  23.2 °C 56.1 °F /  13.4 °C 29.7in /  1004.1hPa NNE 2.9mph /  4.7km/h 4mph /  6.4km/h 54% 0in /  0.0mm 160 W/m2
17:07 73.8 °F /  23.2 °C 56.1 °F /  13.4 °C 29.7in /  1004.1hPa Calm   3mph /  4.8km/h 54% 0in /  0.0mm 141 W/m2
17:12 74.1 °F /  23.4 °C 55.4 °F /  13 °C 29.7in /  1004.1hPa North 2mph /  3.2km/h 3mph /  4.8km/h 52% 0in /  0.0mm 297 W/m2
17:17 74.7 °F /  23.7 °C 55.9 °F /  13.3 °C 29.7in /  1004.1hPa NNE 2mph /  3.2km/h 3mph /  4.8km/h 52% 0in /  0.0mm 153 W/m2
17:22 74.8 °F /  23.8 °C 55 °F /  12.8 °C 29.7in /  1004.1hPa NNW 4mph /  6.4km/h 6mph /  9.7km/h 50% 0in /  0.0mm 220 W/m2
17:27 74.7 °F /  23.7 °C 54.9 °F /  12.7 °C 29.7in /  1004.1hPa WNW 4.9mph /  7.9km/h 6mph /  9.7km/h 50% 0in /  0.0mm 137 W/m2
17:32 74.1 °F /  23.4 °C 54.9 °F /  12.7 °C 29.7in /  1004.1hPa NW 2mph /  3.2km/h 3mph /  4.8km/h 51% 0in /  0.0mm 88 W/m2
17:37 73.9 °F /  23.3 °C 54.1 °F /  12.3 °C 29.7in /  1004.1hPa NE 2.9mph /  4.7km/h 6mph /  9.7km/h 50% 0in /  0.0mm 113 W/m2
17:42 73.6 °F /  23.1 °C 54.3 °F /  12.4 °C 29.7in /  1004.1hPa NE 2mph /  3.2km/h 5mph /  8km/h 51% 0in /  0.0mm 135 W/m2
17:47 73.6 °F /  23.1 °C 54.3 °F /  12.4 °C 29.7in /  1004.1hPa NW 0.9mph /  1.4km/h 6mph /  9.7km/h 51% 0in /  0.0mm 125 W/m2
17:52 73.4 °F /  23 °C 54.7 °F /  12.6 °C 29.7in /  1004.1hPa Calm   3mph /  4.8km/h 52% 0in /  0.0mm 146 W/m2
17:57 73.4 °F /  23 °C 54.7 °F /  12.6 °C 29.6in /  1003.7hPa West 2mph /  3.2km/h 4mph /  6.4km/h 52% 0in /  0.0mm 130 W/m2
18:02 73.4 °F /  23 °C 54.7 °F /  12.6 °C 29.6in /  1003.7hPa NW 2.9mph /  4.7km/h 7mph /  11.3km/h 52% 0in /  0.0mm 111 W/m2
18:07 73.2 °F /  22.9 °C 54.5 °F /  12.5 °C 29.6in /  1003.7hPa WNW 2.9mph /  4.7km/h 5mph /  8km/h 52% 0in /  0.0mm 98 W/m2
18:12 73 °F /  22.8 °C 54.9 °F /  12.7 °C 29.6in /  1003.7hPa NNW 0.9mph /  1.4km/h 7mph /  11.3km/h 53% 0in /  0.0mm 79 W/m2
18:17 73 °F /  22.8 °C 54.3 °F /  12.4 °C 29.6in /  1003.7hPa NW 4mph /  6.4km/h 4mph /  6.4km/h 52% 0in /  0.0mm 70 W/m2
18:22 72.9 °F /  22.7 °C 54.7 °F /  12.6 °C 29.6in /  1003.7hPa WNW 2.9mph /  4.7km/h 3mph /  4.8km/h 53% 0in /  0.0mm 58 W/m2
18:27 72.7 °F /  22.6 °C 54.5 °F /  12.5 °C 29.6in /  1003.7hPa NW 2mph /  3.2km/h 4mph /  6.4km/h 53% 0in /  0.0mm 54 W/m2
18:32 72.5 °F /  22.5 °C 54.3 °F /  12.4 °C 29.6in /  1003.7hPa Calm   2mph /  3.2km/h 53% 0in /  0.0mm 47 W/m2
18:37 72.1 °F /  22.3 °C 54.5 °F /  12.5 °C 29.6in /  1003.7hPa NNW 4mph /  6.4km/h 4mph /  6.4km/h 54% 0in /  0.0mm 42 W/m2
18:42 72.1 °F /  22.3 °C 54.1 °F /  12.3 °C 29.6in /  1003.7hPa NW 0.9mph /  1.4km/h 3mph /  4.8km/h 53% 0in /  0.0mm 40 W/m2
18:47 72 °F /  22.2 °C 54 °F /  12.2 °C 29.6in /  1003.4hPa WNW 0.9mph /  1.4km/h 3mph /  4.8km/h 53% 0in /  0.0mm 39 W/m2
18:52 71.8 °F /  22.1 °C 53.8 °F /  12.1 °C 29.6in /  1003.4hPa Calm   2mph /  3.2km/h 53% 0in /  0.0mm 33 W/m2
18:57 71.8 °F /  22.1 °C 53.8 °F /  12.1 °C 29.6in /  1003.4hPa NNW 0.9mph /  1.4km/h 2mph /  3.2km/h 53% 0in /  0.0mm 26 W/m2
19:02 71.4 °F /  21.9 °C 53.4 °F /  11.9 °C 29.6in /  1003.4hPa Calm   1mph /  1.6km/h 53% 0in /  0.0mm 23 W/m2
19:07 71.2 °F /  21.8 °C 54.3 °F /  12.4 °C 29.6in /  1003.4hPa Calm     55% 0in /  0.0mm 19 W/m2
19:12 70.9 °F /  21.6 °C 54 °F /  12.2 °C 29.6in /  1003.4hPa WNW 0.9mph /  1.4km/h 2mph /  3.2km/h 55% 0in /  0.0mm 16 W/m2
19:17 70.5 °F /  21.4 °C 54.1 °F /  12.3 °C 29.6in /  1003.4hPa SW 0.9mph /  1.4km/h 2mph /  3.2km/h 56% 0in /  0.0mm 11 W/m2
19:22 70.2 °F /  21.2 °C 54.7 °F /  12.6 °C 29.6in /  1003.4hPa Calm     58% 0in /  0.0mm 9 W/m2
19:27 69.8 °F /  21 °C 54.3 °F /  12.4 °C 29.6in /  1003.4hPa SW 0.9mph /  1.4km/h 2mph /  3.2km/h 58% 0in /  0.0mm 5 W/m2
19:32 69.3 °F /  20.7 °C 54.3 °F /  12.4 °C 29.6in /  1003.4hPa Calm   1mph /  1.6km/h 59% 0in /  0.0mm 0 W/m2
19:37 68.7 °F /  20.4 °C 54.3 °F /  12.4 °C 29.6in /  1003.4hPa Calm   1mph /  1.6km/h 60% 0in /  0.0mm 0 W/m2
19:42 68.4 °F /  20.2 °C 54.9 °F /  12.7 °C 29.6in /  1003.4hPa SE 0.9mph /  1.4km/h 2mph /  3.2km/h 62% 0in /  0.0mm 0 W/m2
19:47 68.4 °F /  20.2 °C 55.8 °F /  13.2 °C 29.6in /  1003.4hPa Calm   1mph /  1.6km/h 64% 0in /  0.0mm 0 W/m2
19:52 68.2 °F /  20.1 °C 55.9 °F /  13.3 °C 29.6in /  1003.4hPa NE 0.9mph /  1.4km/h 2mph /  3.2km/h 65% 0in /  0.0mm 0 W/m2
19:57 68 °F /  20 °C 56.3 °F /  13.5 °C 29.6in /  1003.4hPa NE 0.9mph /  1.4km/h 2mph /  3.2km/h 66% 0in /  0.0mm 0 W/m2
20:03 67.8 °F /  19.9 °C 56.5 °F /  13.6 °C 29.6in /  1003.0hPa Calm   2mph /  3.2km/h 67% 0in /  0.0mm 0 W/m2
20:08 67.8 °F /  19.9 °C 56.5 °F /  13.6 °C 29.6in /  1003.4hPa Calm   1mph /  1.6km/h 67% 0in /  0.0mm 0 W/m2
20:13 67.3 °F /  19.6 °C 55.9 °F /  13.3 °C 29.6in /  1003.0hPa Calm   2mph /  3.2km/h 67% 0in /  0.0mm 0 W/m2
20:18 66.9 °F /  19.4 °C 55.9 °F /  13.3 °C 29.6in /  1003.0hPa Calm   1mph /  1.6km/h 68% 0in /  0.0mm 0 W/m2
20:23 66.6 °F /  19.2 °C 56.1 °F /  13.4 °C 29.6in /  1003.0hPa Calm   2mph /  3.2km/h 69% 0in /  0.0mm 0 W/m2
20:28 66.4 °F /  19.1 °C 56.3 °F /  13.5 °C 29.6in /  1003.0hPa ENE 0.9mph /  1.4km/h 1mph /  1.6km/h 70% 0in /  0.0mm 0 W/m2
20:33 66 °F /  18.9 °C 56.3 °F /  13.5 °C 29.6in /  1003.0hPa Calm   1mph /  1.6km/h 71% 0in /  0.0mm 0 W/m2
20:38 65.8 °F /  18.8 °C 56.1 °F /  13.4 °C 29.6in /  1003.0hPa East 0.9mph /  1.4km/h 1mph /  1.6km/h 71% 0in /  0.0mm 0 W/m2
20:43 65.5 °F /  18.6 °C 56.3 °F /  13.5 °C 29.6in /  1003.0hPa Calm     72% 0in /  0.0mm 0 W/m2
20:48 65.1 °F /  18.4 °C 56.3 °F /  13.5 °C 29.6in /  1003.0hPa Calm     73% 0in /  0.0mm 0 W/m2
20:53 64.9 °F /  18.3 °C 56.5 °F /  13.6 °C 29.6in /  1003.0hPa Calm     74% 0in /  0.0mm 0 W/m2
20:58 64.6 °F /  18.1 °C 56.1 °F /  13.4 °C 29.6in /  1003.0hPa ESE 0.9mph /  1.4km/h 2mph /  3.2km/h 74% 0in /  0.0mm 0 W/m2
21:03 64.2 °F /  17.9 °C 56.1 °F /  13.4 °C 29.6in /  1003.0hPa Calm   1mph /  1.6km/h 75% 0in /  0.0mm 0 W/m2
21:08 64 °F /  17.8 °C 56.3 °F /  13.5 °C 29.6in /  1003.0hPa Calm   2mph /  3.2km/h 76% 0in /  0.0mm 0 W/m2
21:13 63.9 °F /  17.7 °C 56.1 °F /  13.4 °C 29.6in /  1003.0hPa ESE 0.9mph /  1.4km/h 1mph /  1.6km/h 76% 0in /  0.0mm 0 W/m2
21:18 63.9 °F /  17.7 °C 56.1 °F /  13.4 °C 29.6in /  1003.0hPa ENE 0.9mph /  1.4km/h 2mph /  3.2km/h 76% 0in /  0.0mm 0 W/m2
21:23 64.2 °F /  17.9 °C 56.1 °F /  13.4 °C 29.6in /  1003.0hPa NE 0.9mph /  1.4km/h 2mph /  3.2km/h 75% 0in /  0.0mm 0 W/m2
21:28 64.6 °F /  18.1 °C 56.5 °F /  13.6 °C 29.6in /  1003.0hPa Calm   2mph /  3.2km/h 75% 0in /  0.0mm 0 W/m2
21:33 64.9 °F /  18.3 °C 56.5 °F /  13.6 °C 29.6in /  1003.0hPa ENE 2.9mph /  4.7km/h 5mph /  8km/h 74% 0in /  0.0mm 0 W/m2
21:38 65.7 °F /  18.7 °C 56.8 °F /  13.8 °C 29.6in /  1003.0hPa NE 2.9mph /  4.7km/h 3mph /  4.8km/h 73% 0in /  0.0mm 0 W/m2
21:43 65.8 °F /  18.8 °C 57 °F /  13.9 °C 29.6in /  1003.0hPa NNE 0.9mph /  1.4km/h 4mph /  6.4km/h 73% 0in /  0.0mm 0 W/m2
21:48 66 °F /  18.9 °C 56.7 °F /  13.7 °C 29.6in /  1003.0hPa NE 2mph /  3.2km/h 4mph /  6.4km/h 72% 0in /  0.0mm 0 W/m2
21:53 66.4 °F /  19.1 °C 57 °F /  13.9 °C 29.6in /  1003.0hPa NE 2mph /  3.2km/h 4mph /  6.4km/h 72% 0in /  0.0mm 0 W/m2
21:58 66.6 °F /  19.2 °C 56.8 °F /  13.8 °C 29.6in /  1003.0hPa NNE 0.9mph /  1.4km/h 2mph /  3.2km/h 71% 0in /  0.0mm 0 W/m2
22:03 66.6 °F /  19.2 °C 56.8 °F /  13.8 °C 29.6in /  1002.7hPa East 2.9mph /  4.7km/h 7mph /  11.3km/h 71% 0in /  0.0mm 0 W/m2
22:08 66.6 °F /  19.2 °C 56.8 °F /  13.8 °C 29.6in /  1003.0hPa NE 2mph /  3.2km/h 3mph /  4.8km/h 71% 0in /  0.0mm 0 W/m2
22:13 66.6 °F /  19.2 °C 56.8 °F /  13.8 °C 29.6in /  1002.7hPa ESE 2mph /  3.2km/h 6mph /  9.7km/h 71% 0in /  0.0mm 0 W/m2
22:18 66.6 °F /  19.2 °C 56.8 °F /  13.8 °C 29.6in /  1002.7hPa NE 2.9mph /  4.7km/h 3mph /  4.8km/h 71% 0in /  0.0mm 0 W/m2
22:23 66.6 °F /  19.2 °C 56.8 °F /  13.8 °C 29.6in /  1002.7hPa ENE 4mph /  6.4km/h 8mph /  12.9km/h 71% 0in /  0.0mm 0 W/m2
22:28 66.4 °F /  19.1 °C 56.7 °F /  13.7 °C 29.6in /  1002.7hPa NNE 2.9mph /  4.7km/h 6mph /  9.7km/h 71% 0in /  0.0mm 0 W/m2
22:33 66.2 °F /  19 °C 56.5 °F /  13.6 °C 29.6in /  1002.7hPa East 4.9mph /  7.9km/h 8mph /  12.9km/h 71% 0in /  0.0mm 0 W/m2
22:38 66 °F /  18.9 °C 56.7 °F /  13.7 °C 29.6in /  1002.7hPa ENE 0.9mph /  1.4km/h 3mph /  4.8km/h 72% 0in /  0.0mm 0 W/m2
22:43 65.8 °F /  18.8 °C 57 °F /  13.9 °C 29.6in /  1002.7hPa ENE 4mph /  6.4km/h 4mph /  6.4km/h 73% 0in /  0.0mm 0 W/m2
22:48 65.7 °F /  18.7 °C 56.8 °F /  13.8 °C 29.6in /  1002.7hPa ENE 4.9mph /  7.9km/h 5mph /  8km/h 73% 0in /  0.0mm 0 W/m2
22:53 65.5 °F /  18.6 °C 56.7 °F /  13.7 °C 29.6in /  1002.7hPa Calm   5mph /  8km/h 73% 0in /  0.0mm 0 W/m2
22:58 65.5 °F /  18.6 °C 56.7 °F /  13.7 °C 29.6in /  1002.7hPa East 6mph /  9.7km/h 6mph /  9.7km/h 73% 0in /  0.0mm 0 W/m2
23:03 65.7 °F /  18.7 °C 56.8 °F /  13.8 °C 29.6in /  1002.4hPa ENE 2.9mph /  4.7km/h 4mph /  6.4km/h 73% 0in /  0.0mm 0 W/m2
23:08 65.7 °F /  18.7 °C 56.8 °F /  13.8 °C 29.6in /  1002.4hPa NE 2.9mph /  4.7km/h 8mph /  12.9km/h 73% 0in /  0.0mm 0 W/m2
23:13 65.8 °F /  18.8 °C 56.5 °F /  13.6 °C 29.6in /  1002.4hPa East 2mph /  3.2km/h 6mph /  9.7km/h 72% 0in /  0.0mm 0 W/m2
23:18 66 °F /  18.9 °C 56.7 °F /  13.7 °C 29.6in /  1002.0hPa East 4.9mph /  7.9km/h 8mph /  12.9km/h 72% 0in /  0.0mm 0 W/m2
23:23 66.2 °F /  19 °C 56.8 °F /  13.8 °C 29.6in /  1002.0hPa NNE 2.9mph /  4.7km/h 5mph /  8km/h 72% 0in /  0.0mm 0 W/m2
23:28 66.4 °F /  19.1 °C 56.7 °F /  13.7 °C 29.6in /  1002.0hPa ENE 4mph /  6.4km/h 9mph /  14.5km/h 71% 0in /  0.0mm 0 W/m2
23:33 66.6 °F /  19.2 °C 56.8 °F /  13.8 °C 29.6in /  1002.0hPa North 2mph /  3.2km/h 3mph /  4.8km/h 71% 0in /  0.0mm 0 W/m2
23:38 66.7 °F /  19.3 °C 57.4 °F /  14.1 °C 29.6in /  1002.4hPa East 2mph /  3.2km/h 5mph /  8km/h 72% 0in /  0.0mm 0 W/m2
23:43 66.7 °F /  19.3 °C 57.4 °F /  14.1 °C 29.6in /  1002.4hPa NW 4.9mph /  7.9km/h 6mph /  9.7km/h 72% 0in /  0.0mm 0 W/m2
23:48 66.6 °F /  19.2 °C 58.5 °F /  14.7 °C 29.6in /  1002.7hPa WNW 4.9mph /  7.9km/h 13mph /  20.9km/h 75% 0.04in /  1.0mm 0 W/m2
23:53 65.3 °F /  18.5 °C 57.9 °F /  14.4 °C 29.6in /  1002.4hPa NNW 0.9mph /  1.4km/h 4mph /  6.4km/h 77% 0.06in /  1.5mm 0 W/m2
23:58 64.6 °F /  18.1 °C 58.3 °F /  14.6 °C 29.6in /  1002.0hPa NE 0.9mph /  1.4km/h 13mph /  20.9km/h 80% 0.06in /  1.5mm 0 W/m2
Juneau County Weather
Compliments of Weather Underground - 2 mb